createdAt,value
2017-10-16T00:00:33.437Z,9.37
2017-10-16T00:03:59.090Z,8.07
2017-10-16T00:07:25.548Z,8.30
2017-10-16T00:10:53.068Z,7.90
2017-10-16T00:14:18.462Z,8.33
2017-10-16T00:17:43.792Z,8.07
2017-10-16T00:21:09.828Z,8.87
2017-10-16T00:24:35.445Z,7.67
2017-10-16T00:28:00.617Z,7.13
2017-10-16T00:31:26.376Z,7.80
2017-10-16T00:35:01.319Z,7.80
2017-10-16T00:38:27.807Z,8.60
2017-10-16T00:41:53.495Z,8.00
2017-10-16T00:45:20.668Z,7.80
2017-10-16T00:48:46.036Z,7.40
2017-10-16T00:52:12.354Z,7.33
2017-10-16T00:55:38.590Z,7.53
2017-10-16T00:59:04.352Z,7.83
2017-10-16T01:02:32.159Z,6.40
2017-10-16T01:05:57.829Z,8.03
2017-10-16T01:09:23.469Z,7.87
2017-10-16T01:12:50.538Z,7.93
2017-10-16T01:16:17.324Z,8.20
2017-10-16T01:19:44.249Z,8.07
2017-10-16T01:23:10.157Z,8.17
2017-10-16T01:26:39.589Z,7.77
2017-10-16T01:30:05.137Z,8.40
2017-10-16T01:33:31.328Z,7.97
2017-10-16T01:36:57.013Z,8.10
2017-10-16T01:40:22.957Z,7.93
2017-10-16T01:43:50.203Z,8.10
2017-10-16T01:47:17.661Z,8.00
2017-10-16T01:50:43.723Z,7.43
2017-10-16T01:54:10.111Z,7.90
2017-10-16T01:57:35.617Z,8.50
2017-10-16T02:01:01.326Z,8.30
2017-10-16T02:04:27.125Z,6.97
2017-10-16T02:07:53.310Z,7.63
2017-10-16T02:11:19.083Z,9.10
2017-10-16T02:14:45.318Z,7.77
2017-10-16T02:18:10.801Z,8.67
2017-10-16T02:21:35.997Z,7.80
2017-10-16T02:25:02.844Z,8.90
2017-10-16T02:28:28.409Z,7.63
2017-10-16T02:31:54.136Z,7.57
2017-10-16T02:35:20.858Z,7.70
2017-10-16T02:38:46.315Z,8.47
2017-10-16T02:42:12.124Z,8.20
2017-10-16T02:45:37.991Z,9.23
2017-10-16T02:49:04.111Z,8.47
2017-10-16T02:52:29.872Z,8.90
2017-10-16T02:55:57.981Z,9.50
2017-10-16T02:59:24.315Z,9.03
2017-10-16T03:02:50.258Z,9.03
2017-10-16T03:06:16.220Z,8.90
2017-10-16T03:09:41.658Z,9.27
2017-10-16T03:13:07.054Z,9.17
2017-10-16T03:16:33.174Z,9.83
2017-10-16T03:19:58.492Z,10.00
2017-10-16T03:23:23.950Z,10.67
2017-10-16T03:26:54.431Z,10.00
2017-10-16T03:30:19.951Z,10.50
2017-10-16T03:33:45.409Z,10.13
2017-10-16T03:37:11.595Z,11.07
2017-10-16T03:40:38.647Z,10.33
2017-10-16T03:44:08.429Z,10.50
2017-10-16T03:47:33.837Z,10.80
2017-10-16T03:50:59.149Z,10.87
2017-10-16T03:54:24.449Z,9.50
2017-10-16T03:57:51.798Z,10.77
2017-10-16T04:01:18.053Z,10.63
2017-10-16T04:04:43.433Z,10.50
2017-10-16T04:08:09.088Z,10.10
2017-10-16T04:11:34.518Z,10.57
2017-10-16T04:15:01.070Z,10.83
2017-10-16T04:18:27.719Z,9.30
2017-10-16T04:21:53.188Z,9.60
2017-10-16T04:25:18.878Z,8.90
2017-10-16T04:28:44.301Z,9.10
2017-10-16T04:32:09.999Z,9.10
2017-10-16T04:35:35.234Z,9.57
2017-10-16T04:39:00.954Z,8.40
2017-10-16T04:42:26.104Z,9.00
2017-10-16T04:45:51.801Z,9.27
2017-10-16T04:49:17.193Z,8.73
2017-10-16T04:52:42.799Z,9.33
2017-10-16T04:56:09.110Z,8.70
2017-10-16T04:59:34.576Z,7.97
2017-10-16T05:03:00.209Z,9.47
2017-10-16T05:06:25.425Z,7.90
2017-10-16T05:09:50.484Z,9.30
2017-10-16T05:13:16.757Z,9.23
2017-10-16T05:16:41.836Z,8.90
2017-10-16T05:20:07.961Z,8.20
2017-10-16T05:23:34.034Z,8.33
2017-10-16T05:26:59.639Z,9.23
2017-10-16T05:30:25.241Z,8.63
2017-10-16T05:33:50.457Z,7.90
2017-10-16T05:37:15.941Z,9.13
2017-10-16T05:40:46.984Z,7.83
2017-10-16T05:44:12.136Z,8.97
2017-10-16T05:47:37.450Z,8.90
2017-10-16T05:51:02.581Z,8.40
2017-10-16T05:54:27.713Z,8.93
2017-10-16T05:57:53.092Z,7.97
2017-10-16T06:01:18.299Z,7.83
2017-10-16T06:04:44.368Z,9.33
2017-10-16T06:08:09.965Z,7.87
2017-10-16T06:11:37.657Z,9.00
2017-10-16T06:15:03.510Z,8.40
2017-10-16T06:18:33.446Z,7.90
2017-10-16T06:21:59.713Z,8.90
2017-10-16T06:25:25.093Z,7.97
2017-10-16T06:28:51.488Z,9.20
2017-10-16T06:32:16.838Z,9.80
2017-10-16T06:35:44.049Z,9.87
2017-10-16T06:39:10.363Z,8.90
2017-10-16T06:42:35.780Z,9.87
2017-10-16T06:46:05.120Z,8.80
2017-10-16T06:53:04.385Z,11.20
2017-10-16T06:56:30.731Z,10.43
2017-10-16T06:59:56.977Z,10.80
2017-10-16T07:03:39.032Z,13.33
2017-10-16T07:07:05.941Z,12.43
2017-10-16T07:10:31.973Z,12.93
2017-10-16T07:13:57.585Z,11.70
2017-10-16T07:17:23.065Z,12.73
2017-10-16T07:20:49.026Z,13.00
2017-10-16T07:24:14.405Z,12.50
2017-10-16T07:27:39.857Z,12.30
2017-10-16T07:31:05.388Z,12.53
2017-10-16T07:34:31.414Z,13.00
2017-10-16T07:37:56.917Z,12.33
2017-10-16T07:41:23.398Z,12.90
2017-10-16T07:44:48.934Z,13.37
2017-10-16T07:48:16.125Z,12.37
2017-10-16T07:55:10.684Z,12.87
2017-10-16T07:58:36.482Z,12.50
2017-10-16T08:02:01.894Z,12.60
2017-10-16T08:09:02.519Z,12.40
2017-10-16T08:12:27.861Z,11.53
2017-10-16T08:15:53.843Z,12.07
2017-10-16T08:19:19.105Z,10.97
2017-10-16T08:22:47.773Z,12.10
2017-10-16T08:26:13.831Z,11.60
2017-10-16T08:29:40.384Z,10.97
2017-10-16T08:33:06.192Z,11.70
2017-10-16T08:36:31.991Z,11.27
2017-10-16T08:39:57.761Z,11.27
2017-10-16T08:43:24.252Z,11.83
2017-10-16T08:46:53.393Z,10.10
2017-10-16T08:50:19.042Z,10.40
2017-10-16T08:53:44.509Z,10.93
2017-10-16T08:57:09.842Z,10.63
2017-10-16T09:00:35.567Z,10.23
2017-10-16T09:04:07.181Z,11.30
2017-10-16T09:07:32.819Z,10.40
2017-10-16T09:11:01.940Z,10.53
2017-10-16T09:14:31.705Z,10.20
2017-10-16T09:17:57.145Z,10.00
2017-10-16T09:21:28.575Z,10.67
2017-10-16T09:24:54.166Z,9.87
2017-10-16T09:28:20.472Z,9.67
2017-10-16T09:35:17.149Z,11.30
2017-10-16T09:38:42.522Z,10.90
2017-10-16T09:42:11.906Z,11.17
2017-10-16T09:45:37.311Z,11.93
2017-10-16T09:49:05.003Z,12.00
2017-10-16T09:52:34.929Z,10.70
2017-10-16T09:59:43.450Z,11.73
2017-10-16T10:03:10.342Z,12.10
2017-10-16T10:06:35.861Z,10.97
2017-10-16T10:10:01.776Z,10.57
2017-10-16T10:13:27.014Z,11.57
2017-10-16T10:16:55.552Z,12.07
2017-10-16T10:20:21.197Z,12.03
2017-10-16T10:23:47.081Z,10.90
2017-10-16T10:27:13.573Z,11.70
2017-10-16T10:30:39.095Z,11.60
2017-10-16T10:34:04.709Z,11.30
2017-10-16T10:37:30.217Z,11.00
2017-10-16T10:40:58.025Z,12.37
2017-10-16T10:47:55.476Z,11.00
2017-10-16T10:51:20.688Z,11.60
2017-10-16T10:54:46.365Z,9.33
2017-10-16T10:58:11.805Z,10.90
2017-10-16T11:01:37.225Z,11.10
2017-10-16T11:05:02.637Z,8.87
2017-10-16T11:08:32.467Z,9.60
2017-10-16T11:12:02.239Z,10.80
2017-10-16T11:15:27.744Z,10.00
2017-10-16T11:18:53.032Z,10.37
2017-10-16T11:22:18.278Z,8.97
2017-10-16T11:25:46.319Z,9.63
2017-10-16T11:29:11.684Z,10.17
2017-10-16T11:36:11.744Z,9.53
2017-10-16T11:39:42.841Z,9.27
2017-10-16T11:43:08.141Z,10.10
2017-10-16T11:46:33.583Z,9.33
2017-10-16T11:50:03.136Z,9.57
2017-10-16T11:53:29.379Z,9.50
2017-10-16T11:56:54.618Z,9.67
2017-10-16T12:00:20.164Z,9.97
2017-10-16T12:03:45.478Z,9.90
2017-10-16T12:07:11.150Z,8.10
2017-10-16T12:10:37.354Z,9.00
2017-10-16T12:14:07.826Z,10.20
2017-10-16T12:17:43.361Z,7.87
2017-10-16T12:21:09.713Z,8.77
2017-10-16T12:24:35.267Z,9.23
2017-10-16T12:28:04.980Z,9.20
2017-10-16T12:31:30.290Z,8.90
2017-10-16T12:34:55.955Z,8.80
2017-10-16T12:38:23.297Z,8.53
2017-10-16T12:41:57.133Z,8.83
2017-10-16T12:45:24.098Z,8.00
2017-10-16T12:48:50.256Z,7.80
2017-10-16T12:52:15.681Z,7.57
2017-10-16T12:55:45.693Z,8.20
2017-10-16T12:59:15.576Z,9.53
2017-10-16T13:02:48.529Z,8.60
2017-10-16T13:06:19.039Z,7.47
2017-10-16T13:09:44.748Z,9.30
2017-10-16T13:13:12.385Z,8.33
2017-10-16T13:16:38.452Z,8.20
2017-10-16T13:20:08.188Z,8.10
2017-10-16T13:23:33.440Z,7.90
2017-10-16T13:27:00.467Z,8.13
2017-10-16T13:30:49.460Z,9.10
2017-10-16T13:38:29.012Z,8.80
2017-10-16T13:41:54.515Z,9.10
2017-10-16T13:45:19.824Z,8.47
2017-10-16T13:48:50.005Z,9.00
2017-10-16T13:52:33.401Z,7.73
2017-10-16T13:55:59.220Z,8.10
2017-10-16T13:59:25.946Z,8.90
2017-10-16T14:02:51.773Z,8.93
2017-10-16T14:06:19.509Z,8.20
2017-10-16T14:09:45.081Z,8.30
2017-10-16T14:13:11.018Z,9.23
2017-10-16T14:16:36.474Z,9.27
2017-10-16T14:20:05.811Z,8.47
2017-10-16T14:23:31.557Z,9.30
2017-10-16T14:27:10.360Z,8.80
2017-10-16T14:30:41.047Z,8.47
2017-10-16T14:34:07.223Z,9.03
2017-10-16T14:37:33.541Z,9.00
2017-10-16T14:40:59.169Z,8.50
2017-10-16T14:44:24.923Z,9.50
2017-10-16T14:47:58.924Z,10.40
2017-10-16T14:51:25.530Z,9.90
2017-10-16T14:54:51.403Z,9.10
2017-10-16T15:01:48.707Z,8.27
2017-10-16T15:05:15.561Z,8.90
2017-10-16T15:08:50.463Z,8.13
2017-10-16T15:12:17.154Z,9.50
2017-10-16T15:15:44.693Z,8.90
2017-10-16T15:19:26.137Z,9.70
2017-10-16T15:22:51.442Z,8.23
2017-10-16T15:26:21.114Z,9.30
2017-10-16T15:29:48.564Z,9.10
2017-10-16T15:33:13.914Z,9.37
2017-10-16T15:43:45.886Z,8.53
2017-10-16T15:47:11.232Z,9.30
2017-10-16T15:50:37.337Z,9.03
2017-10-16T15:54:03.397Z,8.60
2017-10-16T16:04:45.471Z,8.27
2017-10-16T16:08:14.071Z,8.33
2017-10-16T16:11:40.442Z,10.10
2017-10-16T16:15:16.828Z,8.50
2017-10-16T16:18:45.611Z,8.03
2017-10-16T16:22:11.378Z,10.10
2017-10-16T16:25:43.199Z,13.10
2017-10-16T16:29:08.758Z,13.23
2017-10-16T16:36:08.621Z,13.57
2017-10-16T16:39:34.862Z,13.20
2017-10-16T16:43:00.370Z,12.80
2017-10-16T16:46:29.290Z,12.83
2017-10-16T16:50:00.078Z,11.10
2017-10-16T16:53:28.890Z,12.27
2017-10-16T16:56:58.722Z,11.07
2017-10-16T17:00:33.875Z,10.17
2017-10-16T17:03:59.875Z,10.63
2017-10-16T17:07:26.055Z,10.97
2017-10-16T17:10:51.990Z,11.27
2017-10-16T17:14:17.361Z,11.30
2017-10-16T17:17:43.206Z,11.83
2017-10-16T17:21:08.719Z,12.27
2017-10-16T17:24:41.013Z,12.30
2017-10-16T17:28:09.153Z,13.10
2017-10-16T17:31:40.500Z,12.20
2017-10-16T17:35:08.849Z,11.30
2017-10-16T17:38:35.313Z,11.80
2017-10-16T17:42:00.981Z,11.83
2017-10-16T17:45:31.061Z,10.90
2017-10-16T17:48:56.965Z,11.30
2017-10-16T17:52:22.382Z,11.20
2017-10-16T17:55:49.448Z,11.03
2017-10-16T17:59:15.196Z,11.03
2017-10-16T18:02:40.606Z,9.60
2017-10-16T18:06:06.886Z,11.20
2017-10-16T18:09:32.556Z,10.23
2017-10-16T18:12:58.164Z,10.17
2017-10-16T18:16:23.943Z,10.70
2017-10-16T18:19:49.507Z,10.40
2017-10-16T18:23:14.996Z,9.87
2017-10-16T18:26:40.453Z,9.80
2017-10-16T18:30:06.328Z,10.20
2017-10-16T18:33:31.799Z,10.50
2017-10-16T18:36:58.117Z,9.77
2017-10-16T18:40:25.054Z,11.03
2017-10-16T18:43:50.658Z,9.67
2017-10-16T18:47:16.306Z,9.70
2017-10-16T18:50:42.494Z,9.47
2017-10-16T18:54:08.059Z,10.00
2017-10-16T18:57:33.574Z,14.07
2017-10-16T19:00:59.310Z,11.53
2017-10-16T19:04:24.931Z,13.17
2017-10-16T19:07:50.914Z,12.97
2017-10-16T19:11:16.311Z,12.40
2017-10-16T19:14:42.014Z,11.77
2017-10-16T19:18:07.777Z,11.77
2017-10-16T19:21:33.495Z,11.27
2017-10-16T19:24:59.443Z,12.40
2017-10-16T19:28:24.920Z,12.33
2017-10-16T19:31:50.797Z,11.20
2017-10-16T19:35:18.571Z,10.23
2017-10-16T19:38:44.140Z,9.87
2017-10-16T19:42:09.678Z,10.70
2017-10-16T19:45:35.619Z,10.40
2017-10-16T19:49:01.237Z,10.43
2017-10-16T19:52:27.382Z,11.83
2017-10-16T19:55:53.697Z,10.47
2017-10-16T19:59:19.333Z,9.70
2017-10-16T20:02:44.986Z,10.37
2017-10-16T20:06:12.843Z,10.40
2017-10-16T20:09:40.475Z,9.00
2017-10-16T20:13:06.288Z,10.60
2017-10-16T20:16:32.015Z,10.80
2017-10-16T20:19:57.847Z,10.30
2017-10-16T20:23:24.279Z,10.30
2017-10-16T20:26:50.633Z,9.77
2017-10-16T20:30:16.132Z,9.33
2017-10-16T20:33:41.837Z,10.40
2017-10-16T20:37:08.222Z,10.13
2017-10-16T20:40:34.036Z,9.23
2017-10-16T20:43:59.956Z,8.93
2017-10-16T20:47:26.002Z,9.73
2017-10-16T20:54:22.806Z,9.50
2017-10-16T20:57:49.944Z,9.93
2017-10-16T21:01:16.085Z,9.47
2017-10-16T21:04:42.412Z,9.23
2017-10-16T21:08:08.101Z,10.87
2017-10-16T21:11:34.202Z,9.23
2017-10-16T21:15:00.795Z,8.97
2017-10-16T21:18:26.194Z,9.00
2017-10-16T21:21:51.981Z,8.77
2017-10-16T21:25:18.413Z,8.80
2017-10-16T21:28:44.084Z,9.00
2017-10-16T21:32:09.911Z,9.30
2017-10-16T21:35:35.537Z,9.77
2017-10-16T21:39:00.969Z,10.93
2017-10-16T21:42:26.487Z,10.00
2017-10-16T21:45:52.198Z,9.13
2017-10-16T21:49:21.933Z,9.67
2017-10-16T21:52:47.573Z,8.90
2017-10-16T21:56:13.472Z,8.90
2017-10-16T21:59:39.187Z,9.20
2017-10-16T22:03:05.969Z,9.00
2017-10-16T22:06:33.714Z,8.63
2017-10-16T22:09:59.538Z,10.00
2017-10-16T22:13:28.192Z,8.90
2017-10-16T22:16:54.991Z,8.93
2017-10-16T22:20:20.597Z,8.43
2017-10-16T22:23:46.615Z,9.37
2017-10-16T22:27:12.268Z,8.80
2017-10-16T22:30:38.280Z,8.60
2017-10-16T22:34:03.954Z,9.07
2017-10-16T22:37:30.268Z,8.90
2017-10-16T22:40:58.381Z,9.60
2017-10-16T22:44:23.975Z,9.13
2017-10-16T22:47:49.511Z,9.47
2017-10-16T22:51:20.662Z,8.70
2017-10-16T22:54:50.262Z,8.83
2017-10-16T22:58:16.091Z,8.60
2017-10-16T23:01:41.740Z,9.23
2017-10-16T23:05:07.256Z,10.27
2017-10-16T23:08:33.684Z,7.80
2017-10-16T23:12:01.040Z,9.10
2017-10-16T23:15:26.961Z,9.27
2017-10-16T23:18:52.586Z,9.33
2017-10-16T23:22:27.377Z,9.57
2017-10-16T23:25:54.746Z,9.07
2017-10-16T23:29:20.348Z,8.90
2017-10-16T23:32:46.133Z,9.03
2017-10-16T23:36:12.538Z,9.80
2017-10-16T23:39:38.165Z,9.67
2017-10-16T23:43:03.628Z,8.83
2017-10-16T23:46:36.665Z,8.90
2017-10-16T23:50:03.134Z,8.60
2017-10-16T23:53:33.715Z,9.57
2017-10-16T23:57:00.098Z,9.37
